»·PEaware :: N71K KSAC-L52

N71K :: KSAC-L52

FLIGHT INFORMATION

Flight Status: Arrived
Operator: Privately registered:
United States
More flights under this callsign
Pilot: Ryan C. (15122)
Aircraft: Unknown
(EPIC)
More flights by this aircraft type
Origin: KSAC Sacramento Executive
United States
Destination: L52 Oceano Co
United States
More flights between these airports :: More routes between these airports
Route: SAC V23 LIN V113 MQO
File this flight plan on PilotEdge
Remarks:
Altitude:
(Current/Filed)
33,000ft
Speed:
(Current/Filed)
300kts
Departed: 23-Sep-19 02:46 PM
Arrived: 23-Sep-19 03:36 PM
Distance/Time
Traveled:
209nm/0:50
Distance/Time
To Go:
Arrived

Flight Plot

Page will automatically refresh every two minutes.

Flight plan parsing failed; only flown route is shown


Map Options




Map Legend


Flown Route
Filed Route
Departure Airport
Arrival Airport
Navaid (VOR, NDB)
Fix

Horizontal Profiles

Position Reports

Time Latitude Longitude Heading Altitude Ground
Speed
23-Sep-19 14:32 38.514813 -121.498416 224 23ft 0kts
23-Sep-19 14:33 38.514813 -121.498416 224 23ft 0kts
23-Sep-19 14:34 38.514813 -121.498416 224 23ft 0kts
23-Sep-19 14:35 38.514813 -121.498416 224 23ft 0kts
23-Sep-19 14:36 38.514813 -121.498416 224 23ft 0kts
23-Sep-19 14:37 38.514813 -121.498416 224 23ft 0kts
23-Sep-19 14:38 38.514813 -121.498416 224 23ft 0kts
23-Sep-19 14:39 38.514813 -121.498416 224 23ft 0kts
23-Sep-19 14:40 38.514329 -121.497955 101 23ft 5kts
23-Sep-19 14:41 38.513223 -121.495724 220 23ft 11kts
23-Sep-19 14:42 38.509064 -121.499220 213 23ft 22kts
23-Sep-19 14:43 38.506276 -121.501134 167 23ft 0kts
23-Sep-19 14:44 38.505876 -121.500192 33 23ft 11kts
23-Sep-19 14:45 38.534257 -121.487576 329 1598ft 168kts
23-Sep-19 14:46 38.537263 -121.554783 263 2014ft 214kts
23-Sep-19 14:47 38.495798 -121.585968 153 3347ft 228kts
23-Sep-19 14:48 38.440857 -121.545501 129 6245ft 231kts
23-Sep-19 14:49 38.397955 -121.483042 126 9002ft 240kts
23-Sep-19 14:50 38.353870 -121.417321 125 11902ft 249kts
23-Sep-19 14:51 38.308098 -121.349192 124 14724ft 261kts
23-Sep-19 14:52 38.260121 -121.277939 124 17162ft 272kts
23-Sep-19 14:53 38.210009 -121.203655 123 19525ft 283kts
23-Sep-19 14:54 38.158092 -121.126884 122 21690ft 291kts
23-Sep-19 14:55 38.104831 -121.048385 121 23761ft 286kts
23-Sep-19 14:56 38.037437 -121.000528 168 25807ft 314kts
23-Sep-19 14:57 37.948876 -120.990820 169 27267ft 326kts
23-Sep-19 14:58 37.859207 -120.981603 169 28644ft 327kts
23-Sep-19 14:59 37.769951 -120.972416 168 29954ft 330kts
23-Sep-19 15:00 37.677351 -120.962924 169 30951ft 339kts
23-Sep-19 15:01 37.585307 -120.986649 209 31858ft 352kts
23-Sep-19 15:02 37.497919 -121.041161 188 32703ft 355kts
23-Sep-19 15:03 37.402736 -121.018554 156 32998ft 361kts
23-Sep-19 15:04 37.303342 -120.983616 156 32994ft 380kts
23-Sep-19 15:05 37.200372 -120.947483 156 33001ft 389kts
23-Sep-19 15:06 37.095686 -120.910857 156 33004ft 394kts
23-Sep-19 15:07 36.989806 -120.873895 157 33002ft 398kts
23-Sep-19 15:08 36.887993 -120.838472 158 32989ft 402kts
23-Sep-19 15:09 36.781529 -120.801538 157 32984ft 401kts
23-Sep-19 15:10 36.672982 -120.770208 165 32985ft 405kts
23-Sep-19 15:11 36.561848 -120.748105 165 32985ft 405kts
23-Sep-19 15:12 36.451076 -120.726149 165 32982ft 406kts
23-Sep-19 15:13 36.339671 -120.704129 165 32990ft 406kts
23-Sep-19 15:14 36.228432 -120.682208 165 32994ft 407kts
23-Sep-19 15:15 36.115975 -120.662963 172 32997ft 410kts
23-Sep-19 15:16 36.002288 -120.653678 172 32999ft 411kts
23-Sep-19 15:17 35.891423 -120.644722 172 32993ft 411kts
23-Sep-19 15:18 35.790931 -120.636619 172 32982ft 409kts
23-Sep-19 15:19 35.677883 -120.627878 180 31799ft 427kts
23-Sep-19 15:20 35.563152 -120.661708 196 29800ft 408kts
23-Sep-19 15:21 35.459680 -120.694363 196 27633ft 367kts
23-Sep-19 15:22 35.364918 -120.724193 197 25335ft 341kts
23-Sep-19 15:23 35.275920 -120.752042 197 22818ft 327kts
23-Sep-19 15:24 35.189056 -120.779056 197 19842ft 318kts
23-Sep-19 15:25 35.105720 -120.805166 197 16863ft 303kts
23-Sep-19 15:26 35.026916 -120.830588 197 13881ft 286kts
23-Sep-19 15:27 34.951921 -120.850594 170 10880ft 277kts
23-Sep-19 15:29 34.933551 -120.778595 62 7912ft 256kts
23-Sep-19 15:30 34.962647 -120.701742 53 4916ft 245kts
23-Sep-19 15:31 35.019323 -120.665827 22 2287ft 221kts
23-Sep-19 15:32 35.071509 -120.676948 326 982ft 196kts
23-Sep-19 15:33 35.103529 -120.662369 102 820ft 164kts
23-Sep-19 15:34 35.087208 -120.621787 127 738ft 90kts
23-Sep-19 15:35 35.095777 -120.611928 312 172ft 80kts
23-Sep-19 15:36 35.103046 -120.624233 300 17ft 6kts
23-Sep-19 15:37 35.103297 -120.624365 32 17ft 0kts
23-Sep-19 15:38 35.103297 -120.624365 32 17ft 0kts
23-Sep-19 15:39 35.103297 -120.624365 32 17ft 0kts
23-Sep-19 15:40 35.103297 -120.624365 32 17ft 0kts

Navigation Log

Ident Type
Flight plan parsing failed, navigation log unavailable